Time,TemperatureF,DewpointF,PressureIn,WindDirection,WindDirectionDegrees,WindSpeedMPH,WindSpeedGustMPH,Humidity,HourlyPrecipIn,Conditions,Clouds,dailyrainin,SoftwareType,DateUTC
2013-02-14 00:02:00,31.0,29.0,29.54,SE,142,0.0,3.0,94,0.00,,,0.01,,2013-02-14 06:02:00,
2013-02-14 00:11:00,31.0,29.0,29.54,SSE,167,2.0,4.0,94,0.00,,,0.01,,2013-02-14 06:11:00,
2013-02-14 00:21:00,31.0,29.0,29.54,SSE,167,2.0,4.0,94,0.00,,,0.01,,2013-02-14 06:21:00,
2013-02-14 00:31:00,31.0,30.0,29.53,SE,139,1.0,3.0,95,0.00,,,0.01,,2013-02-14 06:31:00,
2013-02-14 00:42:00,31.0,30.0,29.53,SE,139,1.0,3.0,95,0.00,,,0.01,,2013-02-14 06:42:00,
2013-02-14 00:52:00,31.0,30.0,29.53,SE,139,0.0,3.0,96,0.00,,,0.01,,2013-02-14 06:52:00,
2013-02-14 01:01:00,31.0,30.0,29.52,SE,139,0.0,3.0,96,0.00,,,0.01,,2013-02-14 07:01:00,
2013-02-14 01:11:00,31.0,30.0,29.52,SE,139,0.0,3.0,96,0.00,,,0.01,,2013-02-14 07:11:00,
2013-02-14 01:21:00,31.0,30.0,29.52,SE,136,0.0,2.0,96,0.00,,,0.01,,2013-02-14 07:21:00,
2013-02-14 01:31:00,31.0,30.0,29.51,ESE,117,1.0,5.0,97,0.00,,,0.01,,2013-02-14 07:31:00,
2013-02-14 01:41:00,31.0,30.0,29.51,ESE,117,1.0,5.0,97,0.00,,,0.01,,2013-02-14 07:41:00,
2013-02-14 01:52:00,31.0,30.0,29.51,ESE,112,1.0,2.0,97,0.00,,,0.01,,2013-02-14 07:52:00,
2013-02-14 02:01:00,31.0,30.0,29.51,ESE,112,1.0,2.0,97,0.00,,,0.01,,2013-02-14 08:01:00,
2013-02-14 02:11:00,31.0,30.0,29.51,ESE,112,1.0,2.0,97,0.00,,,0.01,,2013-02-14 08:11:00,
2013-02-14 02:21:00,31.0,30.0,29.50,ESE,111,1.0,2.0,97,0.00,,,0.01,,2013-02-14 08:21:00,
2013-02-14 02:32:00,31.0,30.0,29.50,East,82,1.0,3.0,97,0.00,,,0.01,,2013-02-14 08:32:00,
2013-02-14 02:43:00,31.0,30.0,29.50,East,82,1.0,3.0,97,0.00,,,0.01,,2013-02-14 08:43:00,
2013-02-14 02:52:00,31.0,30.0,29.50,East,82,1.0,3.0,97,0.00,,,0.01,,2013-02-14 08:52:00,
2013-02-14 03:01:00,31.0,30.0,29.49,East,83,0.0,3.0,97,0.00,,,0.01,,2013-02-14 09:01:00,
2013-02-14 03:11:00,31.0,30.0,29.49,East,83,0.0,3.0,97,0.00,,,0.01,,2013-02-14 09:11:00,
2013-02-14 03:21:00,31.0,30.0,29.49,East,82,1.0,3.0,97,0.00,,,0.01,,2013-02-14 09:21:00,
2013-02-14 03:31:00,31.0,30.0,29.49,NE,56,2.0,4.0,97,0.00,,,0.01,,2013-02-14 09:31:00,
2013-02-14 03:42:00,31.0,30.0,29.49,NE,56,2.0,4.0,97,0.00,,,0.01,,2013-02-14 09:42:00,
2013-02-14 03:52:00,31.0,30.0,29.49,NE,51,1.0,3.0,97,0.00,,,0.01,,2013-02-14 09:52:00,
2013-02-14 04:02:00,31.0,30.0,29.49,NE,46,2.0,4.0,97,0.00,,,0.01,,2013-02-14 10:02:00,
2013-02-14 04:11:00,31.0,30.0,29.49,NE,46,2.0,5.0,97,0.00,,,0.01,,2013-02-14 10:11:00,
2013-02-14 04:21:00,31.0,30.0,29.49,NE,46,2.0,5.0,97,0.00,,,0.01,,2013-02-14 10:21:00,
2013-02-14 04:31:00,31.0,30.0,29.49,NE,44,1.0,5.0,97,0.00,,,0.01,,2013-02-14 10:31:00,
2013-02-14 04:42:00,31.0,30.0,29.49,NE,44,1.0,5.0,97,0.00,,,0.01,,2013-02-14 10:42:00,
2013-02-14 04:52:00,31.0,30.0,29.49,NNE,30,3.0,7.0,97,0.00,,,0.01,,2013-02-14 10:52:00,
2013-02-14 05:01:00,31.0,31.0,29.50,NE,34,3.0,6.0,98,0.00,,,0.01,,2013-02-14 11:01:00,
2013-02-14 05:11:00,31.0,31.0,29.50,NE,34,3.0,6.0,98,0.00,,,0.01,,2013-02-14 11:11:00,
2013-02-14 05:21:00,31.0,31.0,29.51,North,360,2.0,5.0,98,0.00,,,0.01,,2013-02-14 11:21:00,
2013-02-14 05:32:00,31.0,30.0,29.51,NNW,348,3.0,7.0,97,0.00,,,0.01,,2013-02-14 11:32:00,
2013-02-14 05:42:00,31.0,30.0,29.51,NNW,348,3.0,7.0,97,0.00,,,0.01,,2013-02-14 11:42:00,
2013-02-14 05:52:00,31.0,30.0,29.52,NNW,347,4.0,6.0,97,0.00,,,0.01,,2013-02-14 11:52:00,
2013-02-14 06:02:00,31.0,30.0,29.52,NNE,23,5.0,11.0,97,0.00,,,0.01,,2013-02-14 12:02:00,
2013-02-14 06:11:00,31.0,30.0,29.52,NNE,23,5.0,11.0,97,0.00,,,0.01,,2013-02-14 12:11:00,
2013-02-14 06:22:00,31.0,30.0,29.53,North,350,5.0,9.0,96,0.00,,,0.01,,2013-02-14 12:22:00,
2013-02-14 06:32:00,31.0,30.0,29.53,North,5,4.0,9.0,97,0.00,,,0.01,,2013-02-14 12:32:00,
2013-02-14 06:42:00,31.0,30.0,29.53,North,5,4.0,9.0,97,0.00,,,0.01,,2013-02-14 12:42:00,
2013-02-14 06:53:00,30.0,29.0,29.54,NNW,335,5.0,11.0,97,0.00,,,0.01,,2013-02-14 12:53:00,
2013-02-14 07:01:00,30.0,29.0,29.55,NNW,332,5.0,10.0,97,0.00,,,0.01,,2013-02-14 13:01:00,
2013-02-14 07:11:00,30.0,29.0,29.55,NNW,332,5.0,10.0,97,0.00,,,0.01,,2013-02-14 13:11:00,
2013-02-14 07:21:00,29.0,28.0,29.57,NW,320,6.0,12.0,96,0.00,,,0.01,,2013-02-14 13:21:00,
2013-02-14 07:31:00,28.0,27.0,29.58,NNW,327,6.0,12.0,96,0.00,,,0.01,,2013-02-14 13:31:00,
2013-02-14 07:41:00,28.0,27.0,29.58,NNW,327,6.0,12.0,96,0.00,,,0.01,,2013-02-14 13:41:00,
2013-02-14 07:52:00,28.0,27.0,29.59,NNW,331,7.0,14.0,95,0.00,,,0.01,,2013-02-14 13:52:00,
2013-02-14 08:01:00,28.0,27.0,29.60,NNW,329,7.0,12.0,96,0.00,,,0.01,,2013-02-14 14:01:00,
2013-02-14 08:11:00,28.0,27.0,29.60,NNW,329,7.0,12.0,96,0.00,,,0.01,,2013-02-14 14:11:00,
2013-02-14 08:21:00,28.0,27.0,29.61,NW,312,4.0,9.0,96,0.00,,,0.01,,2013-02-14 14:21:00,
2013-02-14 08:31:00,28.0,27.0,29.61,North,355,4.0,11.0,96,0.00,,,0.01,,2013-02-14 14:31:00,
2013-02-14 08:41:00,28.0,27.0,29.61,North,355,4.0,11.0,96,0.00,,,0.01,,2013-02-14 14:41:00,
2013-02-14 08:52:00,28.0,27.0,29.62,NW,315,5.0,13.0,95,0.00,,,0.01,,2013-02-14 14:52:00,
2013-02-14 09:01:00,28.0,27.0,29.63,North,355,5.0,10.0,95,0.00,,,0.01,,2013-02-14 15:01:00,
2013-02-14 09:11:00,28.0,27.0,29.63,North,355,5.0,10.0,95,0.00,,,0.01,,2013-02-14 15:11:00,
2013-02-14 09:21:00,28.0,27.0,29.63,NW,311,3.0,8.0,95,0.00,,,0.01,,2013-02-14 15:21:00,
2013-02-14 09:31:00,28.0,27.0,29.64,North,5,5.0,10.0,94,0.00,,,0.01,,2013-02-14 15:31:00,
2013-02-14 09:41:00,28.0,27.0,29.64,North,5,5.0,10.0,94,0.00,,,0.01,,2013-02-14 15:41:00,
2013-02-14 09:52:00,28.0,27.0,29.65,NW,317,5.0,13.0,94,0.00,,,0.01,,2013-02-14 15:52:00,
2013-02-14 10:01:00,28.0,26.0,29.65,NW,312,7.0,13.0,93,0.00,,,0.01,,2013-02-14 16:01:00,
2013-02-14 10:11:00,28.0,26.0,29.66,WNW,286,8.0,15.0,91,0.00,,,0.01,,2013-02-14 16:11:00,
2013-02-14 10:21:00,28.0,26.0,29.66,WNW,286,8.0,15.0,91,0.00,,,0.01,,2013-02-14 16:21:00,
2013-02-14 10:32:00,29.0,26.0,29.66,WNW,286,8.0,16.0,90,0.00,,,0.01,,2013-02-14 16:32:00,
2013-02-14 10:41:00,29.0,26.0,29.66,WNW,286,8.0,16.0,90,0.00,,,0.01,,2013-02-14 16:41:00,
2013-02-14 10:52:00,29.0,26.0,29.67,NNW,335,7.0,12.0,89,0.00,,,0.01,,2013-02-14 16:52:00,
2013-02-14 11:01:00,29.0,26.0,29.67,West,274,6.0,12.0,88,0.00,,,0.01,,2013-02-14 17:01:00,
2013-02-14 11:11:00,29.0,26.0,29.67,West,274,6.0,12.0,88,0.00,,,0.01,,2013-02-14 17:11:00,
2013-02-14 11:21:00,30.0,26.0,29.67,WNW,302,7.0,13.0,86,0.00,,,0.01,,2013-02-14 17:21:00,
2013-02-14 11:31:00,30.0,26.0,29.68,WNW,302,9.0,16.0,85,0.00,,,0.01,,2013-02-14 17:31:00,
2013-02-14 11:41:00,30.0,26.0,29.68,WNW,302,9.0,16.0,85,0.00,,,0.01,,2013-02-14 17:41:00,
2013-02-14 11:52:00,30.0,26.0,29.68,NNW,328,7.0,14.0,85,0.00,,,0.01,,2013-02-14 17:52:00,
2013-02-14 12:01:00,30.0,26.0,29.69,NW,304,9.0,16.0,86,0.01,,,0.02,,2013-02-14 18:01:00,
2013-02-14 12:11:00,30.0,26.0,29.69,NW,304,9.0,16.0,86,0.01,,,0.02,,2013-02-14 18:11:00,
2013-02-14 12:23:00,30.0,26.0,29.69,WNW,286,9.0,14.0,86,0.01,,,0.02,,2013-02-14 18:23:00,
2013-02-14 12:32:00,30.0,26.0,29.69,West,279,7.0,15.0,86,0.01,,,0.02,,2013-02-14 18:32:00,
2013-02-14 12:42:00,30.0,26.0,29.69,West,279,7.0,15.0,86,0.01,,,0.02,,2013-02-14 18:42:00,
2013-02-14 12:52:00,30.0,27.0,29.70,WNW,302,8.0,18.0,88,0.01,,,0.02,,2013-02-14 18:52:00,
2013-02-14 13:02:00,30.0,27.0,29.70,WNW,300,7.0,18.0,87,0.00,,,0.02,,2013-02-14 19:02:00,
2013-02-14 13:11:00,30.0,27.0,29.70,WNW,300,7.0,18.0,87,0.00,,,0.02,,2013-02-14 19:11:00,
2013-02-14 13:21:00,30.0,27.0,29.71,WNW,293,6.0,13.0,87,0.00,,,0.01,,2013-02-14 19:21:00,
2013-02-14 13:31:00,30.0,26.0,29.71,West,279,8.0,14.0,85,0.00,,,0.01,,2013-02-14 19:31:00,
2013-02-14 13:41:00,30.0,26.0,29.71,West,279,8.0,14.0,85,0.00,,,0.01,,2013-02-14 19:41:00,
2013-02-14 13:52:00,31.0,26.0,29.71,NW,315,9.0,13.0,83,0.00,,,0.01,,2013-02-14 19:52:00,
2013-02-14 14:01:00,31.0,26.0,29.72,WNW,289,6.0,16.0,82,0.00,,,0.01,,2013-02-14 20:01:00,
2013-02-14 14:11:00,31.0,26.0,29.72,WNW,296,8.0,16.0,81,0.00,,,0.01,,2013-02-14 20:11:00,
2013-02-14 14:21:00,31.0,26.0,29.72,WNW,296,8.0,16.0,81,0.00,,,0.01,,2013-02-14 20:21:00,
2013-02-14 14:31:00,31.0,25.0,29.73,WNW,296,7.0,14.0,79,0.00,,,0.01,,2013-02-14 20:31:00,
2013-02-14 14:41:00,31.0,25.0,29.73,WNW,296,7.0,14.0,79,0.00,,,0.01,,2013-02-14 20:41:00,
2013-02-14 14:52:00,31.0,25.0,29.74,WNW,286,9.0,14.0,77,0.00,,,0.01,,2013-02-14 20:52:00,
2013-02-14 15:02:00,31.0,24.0,29.75,West,281,8.0,16.0,75,0.00,,,0.01,,2013-02-14 21:02:00,
2013-02-14 15:11:00,31.0,24.0,29.75,West,281,8.0,16.0,75,0.00,,,0.01,,2013-02-14 21:11:00,
2013-02-14 15:21:00,31.0,23.0,29.75,West,266,8.0,13.0,71,0.00,,,0.01,,2013-02-14 21:21:00,
2013-02-14 15:31:00,31.0,22.0,29.76,NW,304,8.0,15.0,70,0.00,,,0.01,,2013-02-14 21:31:00,
2013-02-14 15:42:00,31.0,22.0,29.76,NW,304,8.0,15.0,70,0.00,,,0.01,,2013-02-14 21:42:00,
2013-02-14 15:52:00,31.0,21.0,29.77,NW,309,11.0,17.0,67,0.00,,,0.01,,2013-02-14 21:52:00,
2013-02-14 16:02:00,31.0,22.0,29.77,West,279,9.0,16.0,69,0.00,,,0.01,,2013-02-14 22:02:00,
2013-02-14 16:11:00,31.0,22.0,29.78,West,268,6.0,11.0,70,0.00,,,0.01,,2013-02-14 22:11:00,
2013-02-14 16:21:00,31.0,22.0,29.78,West,268,6.0,11.0,70,0.00,,,0.01,,2013-02-14 22:21:00,
2013-02-14 16:31:00,31.0,23.0,29.78,WNW,296,5.0,14.0,72,0.00,,,0.01,,2013-02-14 22:31:00,
2013-02-14 16:42:00,31.0,23.0,29.78,WNW,296,5.0,14.0,72,0.00,,,0.01,,2013-02-14 22:42:00,
2013-02-14 16:52:00,31.0,23.0,29.79,West,280,7.0,13.0,73,0.00,,,0.01,,2013-02-14 22:52:00,
2013-02-14 17:01:00,30.0,23.0,29.80,WNW,298,7.0,13.0,74,0.00,,,0.01,,2013-02-14 23:01:00,
2013-02-14 17:11:00,30.0,23.0,29.80,WNW,298,7.0,13.0,74,0.00,,,0.01,,2013-02-14 23:11:00,
2013-02-14 17:21:00,30.0,23.0,29.81,NW,311,5.0,11.0,75,0.00,,,0.01,,2013-02-14 23:21:00,
2013-02-14 17:31:00,29.0,25.0,29.82,WNW,282,5.0,12.0,83,0.00,,,0.01,,2013-02-14 23:31:00,
2013-02-14 17:41:00,29.0,25.0,29.82,WNW,282,5.0,12.0,83,0.00,,,0.01,,2013-02-14 23:41:00,
2013-02-14 17:52:00,29.0,24.0,29.82,West,279,10.0,15.0,80,0.00,,,0.01,,2013-02-14 23:52:00,
2013-02-14 18:01:00,29.0,23.0,29.83,NW,315,8.0,14.0,77,0.00,,,0.01,,2013-02-15 00:01:00,
2013-02-14 18:11:00,29.0,23.0,29.83,NW,315,8.0,14.0,77,0.00,,,0.01,,2013-02-15 00:11:00,
2013-02-14 18:21:00,29.0,24.0,29.84,NNW,328,7.0,12.0,81,0.00,,,0.01,,2013-02-15 00:21:00,
2013-02-14 18:31:00,27.0,23.0,29.85,NW,323,6.0,14.0,85,0.00,,,0.01,,2013-02-15 00:31:00,
2013-02-14 18:42:00,27.0,23.0,29.85,NW,323,6.0,14.0,85,0.00,,,0.01,,2013-02-15 00:42:00,
2013-02-14 18:52:00,26.0,22.0,29.86,NW,309,6.0,13.0,86,0.00,,,0.01,,2013-02-15 00:52:00,
2013-02-14 19:02:00,26.0,21.0,29.87,NW,305,8.0,14.0,80,0.00,,,0.01,,2013-02-15 01:02:00,
2013-02-14 19:11:00,26.0,21.0,29.87,NW,305,8.0,14.0,80,0.00,,,0.01,,2013-02-15 01:11:00,
2013-02-14 19:21:00,25.0,20.0,29.88,NW,316,4.0,10.0,81,0.00,,,0.01,,2013-02-15 01:21:00,
2013-02-14 19:31:00,25.0,20.0,29.89,NNW,342,4.0,9.0,82,0.00,,,0.01,,2013-02-15 01:31:00,
2013-02-14 19:41:00,25.0,20.0,29.89,NNW,342,4.0,9.0,82,0.00,,,0.01,,2013-02-15 01:41:00,
2013-02-14 19:52:00,25.0,20.0,29.89,NW,306,6.0,10.0,82,0.00,,,0.01,,2013-02-15 01:52:00,
2013-02-14 20:01:00,24.0,19.0,29.90,NNW,346,7.0,13.0,82,0.00,,,0.01,,2013-02-15 02:01:00,
2013-02-14 20:11:00,24.0,19.0,29.90,NNW,346,7.0,13.0,82,0.00,,,0.01,,2013-02-15 02:11:00,
2013-02-14 20:21:00,24.0,19.0,29.90,North,5,6.0,13.0,82,0.00,,,0.01,,2013-02-15 02:21:00,
2013-02-14 20:31:00,23.0,18.0,29.90,NW,316,5.0,11.0,81,0.00,,,0.01,,2013-02-15 02:31:00,
2013-02-14 20:41:00,23.0,18.0,29.90,NW,316,5.0,11.0,81,0.00,,,0.01,,2013-02-15 02:41:00,
2013-02-14 20:52:00,23.0,18.0,29.91,North,360,8.0,12.0,80,0.00,,,0.01,,2013-02-15 02:52:00,
2013-02-14 21:02:00,22.0,17.0,29.92,NNW,348,6.0,12.0,80,0.00,,,0.01,,2013-02-15 03:02:00,
2013-02-14 21:11:00,22.0,17.0,29.92,NNW,348,6.0,12.0,80,0.00,,,0.01,,2013-02-15 03:11:00,
2013-02-14 21:22:00,22.0,17.0,29.93,NNW,340,7.0,14.0,81,0.00,,,0.01,,2013-02-15 03:22:00,
2013-02-14 21:32:00,21.0,16.0,29.94,NNW,348,5.0,15.0,82,0.00,,,0.01,,2013-02-15 03:32:00,
2013-02-14 21:42:00,21.0,16.0,29.94,NNW,348,5.0,15.0,82,0.00,,,0.01,,2013-02-15 03:42:00,
2013-02-14 21:52:00,20.0,14.0,29.95,NNW,346,8.0,15.0,77,0.00,,,0.01,,2013-02-15 03:52:00,
2013-02-14 22:01:00,19.0,12.0,29.96,NW,310,7.0,14.0,74,0.00,,,0.01,,2013-02-15 04:01:00,
2013-02-14 22:11:00,19.0,12.0,29.96,NW,310,7.0,14.0,74,0.00,,,0.01,,2013-02-15 04:11:00,
2013-02-14 22:21:00,18.0,11.0,29.96,North,360,6.0,14.0,72,0.00,,,0.01,,2013-02-15 04:21:00,
2013-02-14 22:32:00,18.0,11.0,29.96,North,355,4.0,12.0,73,0.00,,,0.01,,2013-02-15 04:32:00,
2013-02-14 22:42:00,18.0,11.0,29.96,North,355,4.0,12.0,73,0.00,,,0.01,,2013-02-15 04:42:00,
2013-02-14 22:52:00,17.0,10.0,29.97,NNW,331,4.0,7.0,73,0.00,,,0.01,,2013-02-15 04:52:00,
2013-02-14 23:02:00,16.0,9.0,29.97,NW,309,2.0,5.0,74,0.00,,,0.01,,2013-02-15 05:02:00,
2013-02-14 23:12:00,16.0,9.0,29.97,NW,309,2.0,5.0,74,0.00,,,0.01,,2013-02-15 05:12:00,
2013-02-14 23:22:00,16.0,10.0,29.98,NW,313,4.0,7.0,76,0.00,,,0.01,,2013-02-15 05:22:00,
2013-02-14 23:32:00,16.0,10.0,29.98,WNW,298,3.0,6.0,76,0.00,,,0.01,,2013-02-15 05:32:00,
2013-02-14 23:41:00,16.0,10.0,29.98,WNW,298,3.0,6.0,76,0.00,,,0.01,,2013-02-15 05:41:00,
2013-02-14 23:52:00,15.0,9.0,29.98,NW,322,5.0,7.0,78,0.00,,,0.01,,2013-02-15 05:52:00,